Flight Track Log - Related Links

Times and Time Zones

All times are in EDT time to prevent confusion due to time zone crossing. See the USC105 flight status page for this flight to view local times or setup timezone preferences in your user account.

Time Position Orientation Groundspeed Altitude Reporting Facility
EDT Latitude Longitude Course Direction KTS MPH feet Rate Location/Type
Thu 12:16:59 AM 42.2397 -83.5869 265° West 116 133 2,000  Level Cleveland Center
Thu 12:17:59 AM 42.2364 -83.6317 264° West 121 139 2,700 645 Climbing Cleveland Center
Thu 12:19:00 AM 42.2350 -83.6822 268° West 130 150 3,300 516 Climbing Cleveland Center
Thu 12:20:07 AM 42.2314 -83.7353 265° West 133 153 3,800 520 Climbing Cleveland Center
Thu 12:21:07 AM 42.2258 -83.7883 262° West 143 165 4,400 545 Climbing Cleveland Center
Thu 12:22:08 AM 42.2244 -83.8417 268° West 148 170 4,900 443 Climbing Cleveland Center
Thu 12:24:30 AM 42.2194 -83.9653 267° West 148 170 5,900 327 Climbing Chicago Center
Thu 12:25:30 AM 42.2158 -84.0397 266° West 157 181 6,000 50 Climbing Chicago Center
Thu 12:26:31 AM 42.2139 -84.1031 268° West 164 189 6,000  Level Chicago Center
Thu 12:27:31 AM 42.2131 -84.1664 269° West 167 192 6,000  Level Chicago Center
Thu 12:28:32 AM 42.2083 -84.2283 264° West 164 189 6,000  Level Chicago Center
Thu 12:29:32 AM 42.2003 -84.2889 260° West 164 189 6,000  Level Chicago Center
Thu 12:30:33 AM 42.1994 -84.3525 269° West 168 193 6,000  Level Chicago Center
Thu 12:31:33 AM 42.1956 -84.4144 265° West 167 192 6,000  Level Chicago Center
Thu 12:32:34 AM 42.1906 -84.4764 264° West 168 193 6,000  Level Chicago Center
Thu 12:33:34 AM 42.1867 -84.5358 265° West 168 193 6,000  Level Chicago Center
Thu 12:34:35 AM 42.1831 -84.5981 266° West 167 192 6,000  Level Chicago Center
Thu 12:35:35 AM 42.1797 -84.6614 266° West 168 193 6,000  Level Chicago Center
Thu 12:36:36 AM 42.1756 -84.7231 265° West 167 192 6,000  Level Chicago Center
Thu 12:37:36 AM 42.1719 -84.7856 266° West 168 193 6,000  Level Chicago Center
Thu 12:38:37 AM 42.1678 -84.8489 265° West 170 196 6,000  Level Chicago Center
Thu 12:39:37 AM 42.1642 -84.9117 266° West 169 194 6,000  Level Chicago Center
Thu 12:40:38 AM 42.1606 -84.9750 266° West 170 196 6,000  Level Chicago Center
Thu 12:41:38 AM 42.1567 -85.0383 265° West 170 196 6,000  Level Chicago Center
Thu 12:42:39 AM 42.1525 -85.1022 265° West 171 197 6,000  Level Chicago Center
Thu 12:43:39 AM 42.1481 -85.1644 265° West 170 196 6,000  Level Chicago Center
Thu 12:44:39 AM 42.1436 -85.2286 265° West 171 197 6,000  Level Chicago Center
Thu 12:45:40 AM 42.1386 -85.3050 265° West 172 198 6,000  Level Chicago Center
Thu 12:46:40 AM 42.1342 -85.3694 265° West 173 199 6,000  Level Chicago Center
Thu 12:47:41 AM 42.1306 -85.4328 266° West 172 198 6,000  Level Chicago Center
Thu 12:48:41 AM 42.1264 -85.4969 265° West 172 198 6,000  Level Chicago Center
Thu 12:49:41 AM 42.1211 -85.5617 264° West 175 201 6,000  Level Chicago Center
Thu 12:50:42 AM 42.1164 -85.6261 264° West 174 200 6,000  Level Chicago Center
Thu 12:51:42 AM 42.1131 -85.6911 266° West 174 200 6,000  Level Chicago Center
Thu 12:52:42 AM 42.1086 -85.7550 265° West 174 200 6,000  Level Chicago Center
Thu 12:53:43 AM 42.1036 -85.8178 264° West 171 197 6,000  Level Chicago Center
Thu 12:54:43 AM 42.0992 -85.8811 265° West 171 197 6,000  Level Chicago Center
Thu 12:55:43 AM 42.0947 -85.9456 265° West 172 198 6,000  Level Chicago Center
Thu 12:56:44 AM 42.0903 -86.0106 265° West 174 200 6,000  Level Chicago Center
Thu 12:57:44 AM 42.0861 -86.0744 265° West 173 199 6,000  Level Chicago Center
Thu 12:58:44 AM 42.0800 -86.1372 263° West 171 197 6,000  Level Chicago Center
Thu 12:59:44 AM 42.0756 -86.2014 265° West 171 197 6,000  Level Chicago Center
Thu 01:00:45 AM 42.0717 -86.2650 265° West 172 198 6,000  Level Chicago Center
Thu 01:01:45 AM 42.0669 -86.3286 264° West 171 197 6,000  Level Chicago Center
Thu 01:02:45 AM 42.0614 -86.3931 263° West 173 199 6,000  Level Chicago Center
Thu 01:03:46 AM 42.0567 -86.4561 264° West 171 197 6,000  Level Chicago Center
Thu 01:04:46 AM 42.0514 -86.5200 264° West 172 198 6,000  Level Chicago Center
Thu 01:05:46 AM 42.0475 -86.5844 265° West 172 198 6,000  Level Chicago Center
Thu 01:06:46 AM 42.0422 -86.6464 263° West 169 194 6,000  Level Chicago Center
Thu 01:07:47 AM 42.0375 -86.7100 264° West 170 196 6,000  Level Chicago Center
Thu 01:08:47 AM 42.0319 -86.7831 264° West 175 201 6,000  Level Chicago Center
Thu 01:09:47 AM 42.0275 -86.8450 265° West 169 194 6,000  Level Chicago Center
Thu 01:10:47 AM 42.0222 -86.9103 264° West 174 200 6,000  Level Chicago Center
Thu 01:11:48 AM 42.0181 -86.9728 265° West 170 196 6,000  Level Chicago Center
Thu 01:12:48 AM 42.0128 -87.0361 264° West 171 197 6,000  Level Chicago Center
Thu 01:13:48 AM 42.0072 -87.0969 263° West 166 191 6,000  Level Chicago Center
Thu 01:14:48 AM 42.0019 -87.1600 264° West 168 193 6,000  Level Chicago Center
Thu 01:15:48 AM 41.9969 -87.2214 264° West 168 193 6,000  Level Chicago Center
Thu 01:16:49 AM 41.9914 -87.2839 263° West 170 196 6,000  Level Chicago Center
Thu 01:17:49 AM 41.9858 -87.3447 263° West 167 192 6,000  Level Chicago Center
Thu 01:18:49 AM 41.9817 -87.4044 265° West 163 188 6,000  Level Chicago Center
Thu 01:19:50 AM 41.9667 -87.4833 256° West 167 192 6,000  Level Chicago TRACON
Thu 01:20:44 AM 41.9667 -87.5333 270° West 164 189 6,000  Level Chicago TRACON
Thu 01:21:44 AM 41.9667 -87.5833 270° West 165 190 6,000  Level Chicago TRACON
Thu 01:22:44 AM 41.9667 -87.6500 270° West 164 189 6,000  Level Chicago TRACON
Thu 01:23:44 AM 41.9500 -87.7167 251° West 160 184 6,000  Level Chicago TRACON
Thu 01:24:44 AM 41.9500 -87.7667 270° West 159 183 6,000  Level Chicago TRACON
Thu 01:25:44 AM 41.9500 -87.8333 270° West 160 184 6,000  Level Chicago TRACON
Thu 01:26:44 AM 41.9333 -87.8833 246° West 151 174 6,000 -150 Level Chicago TRACON
Thu 01:27:44 AM 41.9333 -87.9333 270° West 174 200 5,700 -650 Descending Chicago TRACON
Thu 01:28:44 AM 41.9333 -88.0000 270° West 181 208 4,700 -1,041 Descending Chicago TRACON
Thu 01:29:45 AM 41.9333 -88.0667 270° West 179 206 3,600 -1,190 Descending Chicago TRACON
Thu 01:30:45 AM 41.9167 -88.1333 251° West 173 199 2,300 -905 Descending Chicago TRACON
Thu 01:31:51 AM 41.9072 -88.1925 258° West 154 177 1,700 -571 Descending Chicago Center
Thu 01:32:51 AM 41.9106 -88.2275 277° West 120 138 1,100 -600 Descending Chicago Center
Thu 01:34:00 AM 41.9000 -88.2333 270° West  Level FlightAware Approximate

Login

Don't have an account? Register now (free) for customized features, flight alerts, and more!